Terminal Aerodrome Forecast
Issued by NWS San Angelo, TX

Home | Current Version | Previous Version | Text Only | Print | Product List | Glossary On
Versions: 1 2 3 4 5 6 7 8 9 10 11 12 13 14 15 16
692
FTUS44 KSJT 250202 AAA
TAFABI
TAF AMD
KABI 250202Z 2502/2524 15009KT P6SM SCT050 OVC120
     FM251000 15011KT P6SM VCSH BKN025
     FM251500 16014G22KT P6SM VCSH OVC035
     FM251900 16014G22KT P6SM -SHRA OVC040=

USA.gov is the U.S. government's official web portal to all federal, state and local government web resources and services.